Rimrock, Arizona
Current Conditions -  °F | °C
As of 7:55 AM on Wednesday 26 Nov 2014 (Local Time) from KSEZ Reporting Station
Clear Clear  
Wind Chill: 46°   Ceiling: Unl
Heat Index: 46°   Visibility: 10mi
Dew Point: 23°   Wind: 0mph
Humidity: 40%   Direction: NA
Pressure: 30.4"   Gusts: NA
Location:  34.63°N, 111.78°W
Report Text: KSEZ 261455Z AUTO 00000KT 10SM CLR 08/M05 A3040 RMK AO2
Loading
Personal Weather Stations






























Interactive Weather Map New forecast layout! Learn more

10-Day Weather Forecast

Advertisements
Track Severe Weather on mobile